KPAM/PAM METAR and TAF weather

Enter ICAO airport designator
Station Type Date Time Source
KPAM METAR 2021/09/25 12:56 UTC NOAA

KPAM 251256Z AUTO 05006KT 10SM SCT075 20/17 A3006 RMK AO2 SLP182 T01990165 $


Station Type Date Time Source
KPAM Decoded METAR 2021/09/25 12:56 UTC NOAA

Tyndall Air Force Base, FL, United States (KPAM) 30-04N 085-35W 13M
Sep 25, 2021 - 08:56 AM EDT / 2021.09.25 1256 UTC
Wind: from the NE (050 degrees) at 7 MPH (6 KT):0
Visibility: 10 mile(s):0
Sky conditions: partly cloudy
Temperature: 67.8 F (19.9 C)
Dew Point: 61.7 F (16.5 C)
Relative Humidity: 80%
Pressure (altimeter): 30.06 in. Hg (1017 hPa)
ob: KPAM 251256Z AUTO 05006KT 10SM SCT075 20/17 A3006 RMK AO2 SLP182 T01990165
cycle: 13

Station Type Date Time Source
KPAM TAF 2021/09/24 19:03 UTC NOAA

TAF KPAM 241900Z 2419/2601 36009KT 9999 SKC QNH3001INS
BECMG 2504/2505 04006KT 9999 SKC QNH3002INS TX28/2519Z TN16/2511Z LAST NO
AMDS AFT 2419 NEXT 2711

Example: see airport list